createdAt,value
2017-07-06T00:00:26.722Z,99.30
2017-07-06T00:02:53.011Z,99.50
2017-07-06T00:05:20.057Z,99.10
2017-07-06T00:07:46.339Z,99.10
2017-07-06T00:10:13.532Z,98.90
2017-07-06T00:12:39.819Z,98.50
2017-07-06T00:15:06.131Z,98.40
2017-07-06T00:17:32.386Z,98.40
2017-07-06T00:19:58.674Z,98.40
2017-07-06T00:22:24.979Z,98.50
2017-07-06T00:24:51.249Z,98.30
2017-07-06T00:27:17.554Z,98.40
2017-07-06T00:29:44.589Z,97.40
2017-07-06T00:32:10.886Z,97.40
2017-07-06T00:34:37.143Z,97.90
2017-07-06T00:37:04.193Z,98.70
2017-07-06T00:39:30.472Z,98.60
2017-07-06T00:41:56.770Z,98.50
2017-07-06T00:44:23.787Z,98.80
2017-07-06T00:46:50.078Z,98.70
2017-07-06T00:49:16.357Z,99.00
2017-07-06T00:51:42.638Z,98.50
2017-07-06T00:54:08.902Z,99.20
2017-07-06T00:56:35.271Z,99.40
2017-07-06T00:59:01.579Z,99.90
2017-07-06T01:01:28.596Z,99.90
2017-07-06T01:03:54.884Z,99.90
2017-07-06T01:06:21.169Z,99.90
2017-07-06T01:08:47.451Z,99.90
2017-07-06T01:11:13.735Z,99.90
2017-07-06T01:13:40.075Z,99.20
2017-07-06T01:16:06.342Z,98.60
2017-07-06T01:18:32.647Z,98.80
2017-07-06T01:20:59.657Z,99.00
2017-07-06T01:23:26.259Z,99.00
2017-07-06T01:25:52.542Z,99.00
2017-07-06T01:28:18.820Z,99.10
2017-07-06T01:30:45.120Z,98.40
2017-07-06T01:33:12.135Z,98.40
2017-07-06T01:35:38.458Z,98.40
2017-07-06T01:38:04.749Z,98.40
2017-07-06T01:40:31.043Z,97.90
2017-07-06T01:42:57.366Z,98.00
2017-07-06T01:45:23.694Z,98.20
2017-07-06T01:47:49.987Z,97.60
2017-07-06T01:50:16.293Z,98.10
2017-07-06T01:52:42.603Z,98.90
2017-07-06T01:55:08.896Z,98.70
2017-07-06T01:57:35.196Z,98.40
2017-07-06T02:00:01.477Z,98.30
2017-07-06T02:02:29.063Z,98.00
2017-07-06T02:04:55.356Z,97.90
2017-07-06T02:07:22.283Z,97.80
2017-07-06T02:09:48.580Z,98.10
2017-07-06T02:12:14.879Z,98.50
2017-07-06T02:14:41.894Z,98.90
2017-07-06T02:17:08.174Z,98.90
2017-07-06T02:19:34.471Z,97.40
2017-07-06T02:22:01.488Z,97.20
2017-07-06T02:24:27.769Z,96.90
2017-07-06T02:26:54.781Z,97.20
2017-07-06T02:29:21.082Z,97.10
2017-07-06T02:31:47.359Z,96.70
2017-07-06T02:34:14.390Z,97.60
2017-07-06T02:36:41.425Z,97.20
2017-07-06T02:39:07.729Z,97.30
2017-07-06T02:41:33.998Z,97.20
2017-07-06T02:44:00.257Z,97.20
2017-07-06T02:46:27.273Z,97.50
2017-07-06T02:48:54.310Z,97.50
2017-07-06T02:51:20.595Z,97.50
2017-07-06T02:53:46.863Z,98.20
2017-07-06T02:56:14.107Z,98.50
2017-07-06T02:58:40.363Z,98.70
2017-07-06T03:01:06.670Z,99.20
2017-07-06T03:03:32.949Z,98.60
2017-07-06T03:05:59.230Z,98.90
2017-07-06T03:08:25.549Z,99.00
2017-07-06T03:10:51.849Z,99.40
2017-07-06T03:13:18.161Z,99.20
2017-07-06T03:15:44.442Z,99.50
2017-07-06T03:18:10.746Z,99.30
2017-07-06T03:20:37.033Z,99.70
2017-07-06T03:23:03.366Z,99.90
2017-07-06T03:25:30.392Z,99.90
2017-07-06T03:27:56.687Z,99.90
2017-07-06T03:30:22.963Z,99.90
2017-07-06T03:32:50.046Z,99.90
2017-07-06T03:35:16.327Z,99.90
2017-07-06T03:37:42.606Z,99.90
2017-07-06T03:40:08.917Z,99.90
2017-07-06T03:42:35.933Z,99.90
2017-07-06T03:45:02.248Z,99.90
2017-07-06T03:47:28.519Z,99.90
2017-07-06T03:49:54.830Z,99.90
2017-07-06T03:52:21.869Z,99.90
2017-07-06T03:54:48.169Z,99.90
2017-07-06T03:57:14.435Z,99.90
2017-07-06T03:59:40.713Z,99.90
2017-07-06T04:02:07.009Z,99.90
2017-07-06T04:04:34.042Z,99.90
2017-07-06T04:07:00.337Z,99.90
2017-07-06T04:09:26.617Z,99.90
2017-07-06T04:11:53.657Z,99.90
2017-07-06T04:14:20.689Z,99.90
2017-07-06T04:16:46.998Z,99.90
2017-07-06T04:19:13.317Z,99.90
2017-07-06T04:21:39.602Z,99.90
2017-07-06T04:24:06.617Z,99.90
2017-07-06T04:26:32.958Z,99.90
2017-07-06T04:28:59.247Z,99.90
2017-07-06T04:31:25.582Z,99.90
2017-07-06T04:33:51.866Z,99.90
2017-07-06T04:36:18.881Z,99.90
2017-07-06T04:38:45.187Z,99.90
2017-07-06T04:41:11.478Z,99.70
2017-07-06T04:43:37.768Z,99.60
2017-07-06T04:46:04.051Z,99.60
2017-07-06T04:48:30.349Z,99.60
2017-07-06T04:50:57.385Z,99.70
2017-07-06T04:53:23.701Z,99.80
2017-07-06T04:55:49.983Z,99.70
2017-07-06T04:58:16.304Z,99.50
2017-07-06T05:00:43.348Z,99.90
2017-07-06T05:03:10.376Z,99.90
2017-07-06T05:05:36.676Z,99.90
2017-07-06T05:08:02.977Z,99.70
2017-07-06T05:10:29.263Z,99.90
2017-07-06T05:12:56.286Z,99.90
2017-07-06T05:15:22.605Z,99.90
2017-07-06T05:17:48.887Z,99.90
2017-07-06T05:20:15.191Z,99.90
2017-07-06T05:22:42.243Z,99.90
2017-07-06T05:25:08.591Z,99.90
2017-07-06T05:27:35.611Z,99.90
2017-07-06T05:30:01.927Z,99.90
2017-07-06T05:32:28.226Z,99.70
2017-07-06T05:34:54.508Z,99.90
2017-07-06T05:37:21.808Z,99.90
2017-07-06T05:39:48.348Z,99.90
2017-07-06T05:42:14.674Z,99.90
2017-07-06T05:44:40.958Z,99.90
2017-07-06T05:47:07.287Z,99.80
2017-07-06T05:49:33.567Z,99.70
2017-07-06T05:51:59.870Z,99.90
2017-07-06T05:54:26.919Z,99.40
2017-07-06T05:56:53.231Z,99.40
2017-07-06T05:59:20.289Z,98.90
2017-07-06T06:01:46.608Z,98.90
2017-07-06T06:04:13.649Z,98.70
2017-07-06T06:06:39.950Z,99.00
2017-07-06T06:09:06.282Z,99.10
2017-07-06T06:11:32.579Z,98.60
2017-07-06T06:13:58.881Z,98.80
2017-07-06T06:16:25.952Z,98.50
2017-07-06T06:18:53.797Z,98.30
2017-07-06T06:21:20.100Z,98.20
2017-07-06T06:23:46.404Z,97.90
2017-07-06T06:26:12.691Z,98.40
2017-07-06T06:28:39.745Z,97.90
2017-07-06T06:31:06.022Z,98.20
2017-07-06T06:33:32.310Z,98.10
2017-07-06T06:35:58.624Z,98.10
2017-07-06T06:38:25.782Z,97.10
2017-07-06T06:40:52.076Z,97.10
2017-07-06T06:43:18.374Z,97.00
2017-07-06T06:45:44.671Z,97.40
2017-07-06T06:48:10.971Z,96.40
2017-07-06T06:50:37.253Z,96.90
2017-07-06T06:53:03.592Z,96.40
2017-07-06T06:55:29.880Z,96.60
2017-07-06T06:57:56.928Z,96.70
2017-07-06T07:00:23.987Z,96.80
2017-07-06T07:02:50.313Z,96.80
2017-07-06T07:05:17.355Z,96.20
2017-07-06T07:07:43.669Z,96.10
2017-07-06T07:10:10.735Z,95.70
2017-07-06T07:12:37.796Z,95.10
2017-07-06T07:15:04.099Z,95.10
2017-07-06T07:17:31.130Z,95.60
2017-07-06T07:19:57.421Z,95.60
2017-07-06T07:22:23.737Z,95.20
2017-07-06T07:24:49.997Z,94.80
2017-07-06T07:27:16.323Z,94.20
2017-07-06T07:29:42.678Z,94.10
2017-07-06T07:32:08.955Z,93.30
2017-07-06T07:34:35.243Z,93.40
2017-07-06T07:37:02.274Z,93.00
2017-07-06T07:39:28.598Z,92.80
2017-07-06T07:41:54.883Z,94.70
2017-07-06T07:44:21.176Z,95.00
2017-07-06T07:46:48.225Z,93.90
2017-07-06T07:49:15.275Z,93.40
2017-07-06T07:51:41.579Z,93.40
2017-07-06T07:54:07.903Z,93.50
2017-07-06T07:56:34.204Z,94.00
2017-07-06T07:59:00.510Z,93.30
2017-07-06T08:01:27.538Z,92.90
2017-07-06T08:03:54.583Z,92.70
2017-07-06T08:06:21.640Z,91.90
2017-07-06T08:08:48.659Z,91.00
2017-07-06T08:11:14.953Z,91.10
2017-07-06T08:13:41.255Z,91.60
2017-07-06T08:16:07.564Z,91.90
2017-07-06T08:18:33.883Z,92.00
2017-07-06T08:21:00.216Z,91.20
2017-07-06T08:23:26.524Z,90.50
2017-07-06T08:25:52.867Z,90.30
2017-07-06T08:28:19.187Z,90.70
2017-07-06T08:30:45.503Z,91.00
2017-07-06T08:33:12.647Z,91.30
2017-07-06T08:35:38.925Z,90.80
2017-07-06T08:38:05.243Z,91.50
2017-07-06T08:40:31.523Z,91.80
2017-07-06T08:42:57.821Z,92.00
2017-07-06T08:45:24.871Z,91.50
2017-07-06T08:47:51.935Z,91.10
2017-07-06T08:50:18.239Z,91.10
2017-07-06T08:52:45.339Z,90.70
2017-07-06T08:55:11.635Z,90.70
2017-07-06T08:57:37.919Z,90.90
2017-07-06T09:00:04.214Z,90.60
2017-07-06T09:02:30.513Z,90.30
2017-07-06T09:04:57.569Z,91.00
2017-07-06T09:07:23.905Z,90.90
2017-07-06T09:09:50.256Z,91.40
2017-07-06T09:12:16.552Z,90.80
2017-07-06T09:14:43.607Z,90.60
2017-07-06T09:17:10.643Z,91.00
2017-07-06T09:19:37.737Z,91.00
2017-07-06T09:22:04.065Z,90.90
2017-07-06T09:24:30.341Z,91.30
2017-07-06T09:26:56.661Z,91.90
2017-07-06T09:29:22.968Z,92.10
2017-07-06T09:31:49.294Z,91.30
2017-07-06T09:34:15.623Z,90.70
2017-07-06T09:36:41.930Z,89.00
2017-07-06T09:39:08.234Z,89.50
2017-07-06T09:41:34.576Z,90.90
2017-07-06T09:44:00.861Z,90.50
2017-07-06T09:46:27.213Z,90.30
2017-07-06T09:48:53.569Z,89.80
2017-07-06T09:51:19.964Z,90.30
2017-07-06T09:53:46.275Z,91.50
2017-07-06T09:56:12.574Z,90.10
2017-07-06T09:58:38.913Z,90.70
2017-07-06T10:01:05.218Z,90.00
2017-07-06T10:03:31.541Z,90.60
2017-07-06T10:05:57.833Z,90.80
2017-07-06T10:08:24.141Z,90.40
2017-07-06T10:10:50.437Z,91.00
2017-07-06T10:13:16.782Z,91.70
2017-07-06T10:15:43.090Z,91.20
2017-07-06T10:18:09.419Z,91.00
2017-07-06T10:20:35.722Z,91.80
2017-07-06T10:23:02.035Z,92.00
2017-07-06T10:25:28.360Z,91.90
2017-07-06T10:27:54.711Z,92.30
2017-07-06T10:30:21.039Z,91.80
2017-07-06T10:32:47.326Z,91.50
2017-07-06T10:35:13.625Z,90.00
2017-07-06T10:37:39.940Z,90.00
2017-07-06T10:40:06.998Z,90.80
2017-07-06T10:42:34.045Z,91.20
2017-07-06T10:45:00.370Z,90.80
2017-07-06T10:47:27.537Z,90.50
2017-07-06T10:49:53.863Z,89.60
2017-07-06T10:52:20.170Z,89.30
2017-07-06T10:54:46.473Z,89.00
2017-07-06T10:57:12.788Z,88.50
2017-07-06T10:59:39.108Z,86.30
2017-07-06T11:02:05.431Z,88.50
2017-07-06T11:04:31.718Z,89.30
2017-07-06T11:06:58.029Z,90.10
2017-07-06T11:09:24.355Z,89.00
2017-07-06T11:11:50.670Z,90.10
2017-07-06T11:14:16.950Z,90.00
2017-07-06T11:16:43.283Z,90.30
2017-07-06T11:19:10.322Z,90.40
2017-07-06T11:21:36.631Z,90.30
2017-07-06T11:24:02.958Z,90.70
2017-07-06T11:26:29.235Z,89.70
2017-07-06T11:28:55.559Z,90.10
2017-07-06T11:31:22.582Z,88.40
2017-07-06T11:33:48.888Z,88.40
2017-07-06T11:36:15.168Z,87.50
2017-07-06T11:38:41.470Z,87.90
2017-07-06T11:41:08.539Z,87.80
2017-07-06T11:43:34.829Z,87.70
2017-07-06T11:46:01.131Z,88.50
2017-07-06T11:48:28.269Z,85.30
2017-07-06T11:50:54.610Z,84.50
2017-07-06T11:53:20.912Z,86.70
2017-07-06T11:55:47.209Z,84.10
2017-07-06T11:58:13.487Z,87.70
2017-07-06T12:00:39.776Z,86.10
2017-07-06T12:03:06.086Z,86.10
2017-07-06T12:05:32.391Z,83.70
2017-07-06T12:07:58.693Z,85.50
2017-07-06T12:10:24.991Z,85.90
2017-07-06T12:12:52.055Z,84.50
2017-07-06T12:15:19.084Z,84.00
2017-07-06T12:17:45.379Z,84.40
2017-07-06T12:20:11.662Z,83.90
2017-07-06T12:22:37.969Z,85.30
2017-07-06T12:25:04.250Z,85.80
2017-07-06T12:27:30.566Z,84.10
2017-07-06T12:29:56.847Z,84.90
2017-07-06T12:32:23.149Z,84.00
2017-07-06T12:34:49.423Z,85.70
2017-07-06T12:37:15.738Z,84.60
2017-07-06T12:39:42.042Z,86.90
2017-07-06T12:42:08.398Z,84.60
2017-07-06T12:44:34.706Z,86.00
2017-07-06T12:47:00.986Z,85.10
2017-07-06T12:49:27.275Z,87.20
2017-07-06T12:51:53.559Z,86.00
2017-07-06T12:54:19.906Z,83.60
2017-07-06T12:56:46.259Z,86.80
2017-07-06T12:59:12.561Z,87.80
2017-07-06T13:01:38.851Z,84.10
2017-07-06T13:04:05.911Z,83.30
2017-07-06T13:06:32.194Z,83.20
2017-07-06T13:08:58.497Z,84.20
2017-07-06T13:11:25.511Z,82.90
2017-07-06T13:13:52.559Z,82.50
2017-07-06T13:16:18.853Z,82.60
2017-07-06T13:18:45.151Z,84.60
2017-07-06T13:21:12.301Z,84.60
2017-07-06T13:23:38.609Z,84.30
2017-07-06T13:26:04.921Z,86.10
2017-07-06T13:28:31.210Z,85.30
2017-07-06T13:30:57.516Z,81.60
2017-07-06T13:33:23.790Z,79.40
2017-07-06T13:35:50.078Z,80.10
2017-07-06T13:38:16.365Z,81.70
2017-07-06T13:40:42.660Z,82.00
2017-07-06T13:43:08.973Z,84.30
2017-07-06T13:45:35.284Z,82.40
2017-07-06T13:48:05.235Z,82.80
2017-07-06T13:50:31.560Z,82.70
2017-07-06T13:52:57.871Z,83.00
2017-07-06T13:55:24.218Z,83.40
2017-07-06T13:57:50.577Z,81.80
2017-07-06T14:00:16.877Z,81.80
2017-07-06T14:02:43.163Z,83.70
2017-07-06T14:05:09.476Z,78.90
2017-07-06T14:07:35.779Z,79.70
2017-07-06T14:10:02.042Z,76.30
2017-07-06T14:12:28.344Z,77.50
2017-07-06T14:14:54.642Z,82.00
2017-07-06T14:17:20.906Z,83.50
2017-07-06T14:19:47.223Z,76.00
2017-07-06T14:22:13.539Z,73.20
2017-07-06T14:24:39.844Z,72.40
2017-07-06T14:27:06.142Z,71.50
2017-07-06T14:29:32.445Z,69.70
2017-07-06T14:31:58.727Z,70.90
2017-07-06T14:34:25.755Z,68.80
2017-07-06T14:36:52.102Z,68.80
2017-07-06T14:39:18.427Z,70.10
2017-07-06T14:41:45.471Z,66.60
2017-07-06T14:44:12.523Z,65.50
2017-07-06T14:46:39.549Z,64.80
2017-07-06T14:49:05.835Z,64.80
2017-07-06T14:51:32.143Z,65.60
2017-07-06T14:53:58.438Z,65.30
2017-07-06T14:56:24.748Z,62.20
2017-07-06T14:58:51.029Z,62.50
2017-07-06T15:01:18.080Z,60.40
2017-07-06T15:03:45.093Z,59.50
2017-07-06T15:06:11.472Z,59.50
2017-07-06T15:08:37.760Z,59.90
2017-07-06T15:11:04.057Z,58.30
2017-07-06T15:13:30.341Z,58.00
2017-07-06T15:15:57.385Z,57.60
2017-07-06T15:18:23.702Z,57.50
2017-07-06T15:20:50.931Z,53.30
2017-07-06T15:23:18.001Z,52.50
2017-07-06T15:25:51.265Z,52.40
2017-07-06T15:28:17.558Z,50.70
2017-07-06T15:30:43.853Z,51.70
2017-07-06T15:33:10.923Z,53.60
2017-07-06T15:35:37.556Z,53.60
2017-07-06T15:38:04.069Z,52.50
2017-07-06T15:40:30.411Z,49.60
2017-07-06T15:42:56.801Z,46.90
2017-07-06T15:45:24.311Z,46.20
2017-07-06T15:47:50.641Z,46.90
2017-07-06T15:50:16.974Z,46.80
2017-07-06T15:52:43.351Z,48.80
2017-07-06T15:55:09.734Z,47.50
2017-07-06T15:57:36.149Z,47.30
2017-07-06T16:00:02.834Z,44.40
2017-07-06T16:02:29.301Z,46.10
2017-07-06T16:04:55.659Z,44.50
2017-07-06T16:07:22.773Z,42.00
2017-07-06T16:09:49.148Z,42.00
2017-07-06T16:12:15.486Z,43.70
2017-07-06T16:14:41.861Z,42.90
2017-07-06T16:17:08.197Z,41.10
2017-07-06T16:19:34.527Z,43.30
2017-07-06T16:22:00.919Z,44.90
2017-07-06T16:24:27.402Z,43.90
2017-07-06T16:26:53.751Z,44.60
2017-07-06T16:29:20.165Z,43.00
2017-07-06T16:31:46.553Z,44.20
2017-07-06T16:34:12.961Z,42.60
2017-07-06T16:36:39.322Z,43.80
2017-07-06T16:39:05.665Z,42.20
2017-07-06T16:41:32.045Z,42.20
2017-07-06T16:43:58.454Z,42.40
2017-07-06T16:46:24.764Z,42.90
2017-07-06T16:48:51.149Z,42.30
2017-07-06T16:51:17.591Z,43.20
2017-07-06T16:53:44.007Z,43.00
2017-07-06T16:56:10.380Z,41.50
2017-07-06T16:58:43.715Z,42.00
2017-07-06T17:01:10.085Z,40.70
2017-07-06T17:03:36.432Z,41.20
2017-07-06T17:06:02.792Z,40.40
2017-07-06T17:08:29.158Z,41.90
2017-07-06T17:10:55.485Z,41.70
2017-07-06T17:13:22.532Z,42.90
2017-07-06T17:15:49.549Z,40.20
2017-07-06T17:18:15.837Z,40.20
2017-07-06T17:20:42.127Z,41.50
2017-07-06T17:23:08.444Z,41.70
2017-07-06T17:25:34.733Z,42.10
2017-07-06T17:28:01.050Z,41.10
2017-07-06T17:30:27.353Z,40.80
2017-07-06T17:32:53.638Z,41.00
2017-07-06T17:35:19.941Z,40.70
2017-07-06T17:37:46.517Z,40.90
2017-07-06T17:40:14.162Z,40.90
2017-07-06T17:42:40.715Z,40.90
2017-07-06T17:45:08.224Z,41.50
2017-07-06T17:47:34.778Z,40.90
2017-07-06T17:50:01.205Z,42.30
2017-07-06T17:52:28.246Z,42.80
2017-07-06T17:54:54.851Z,43.40
2017-07-06T17:57:21.983Z,40.90
2017-07-06T17:59:48.588Z,41.20
2017-07-06T18:02:16.584Z,42.40
2017-07-06T18:04:44.652Z,44.60
2017-07-06T18:07:12.354Z,44.20
2017-07-06T18:09:39.746Z,44.60
2017-07-06T18:12:06.406Z,44.00
2017-07-06T18:14:33.796Z,45.60
2017-07-06T18:17:01.174Z,45.60
2017-07-06T18:19:27.752Z,45.50
2017-07-06T18:21:55.210Z,47.40
2017-07-06T18:24:22.563Z,48.00
2017-07-06T18:26:50.127Z,47.60
2017-07-06T18:29:16.658Z,47.40
2017-07-06T18:31:43.506Z,49.70
2017-07-06T18:34:10.365Z,49.70
2017-07-06T18:36:38.377Z,50.70
2017-07-06T18:39:05.347Z,50.30
2017-07-06T18:41:33.543Z,51.10
2017-07-06T18:44:00.596Z,52.30
2017-07-06T18:46:27.837Z,55.10
2017-07-06T18:48:54.778Z,55.70
2017-07-06T18:51:22.443Z,56.20
2017-07-06T18:53:48.975Z,57.00
2017-07-06T18:56:15.818Z,56.80
2017-07-06T18:58:42.364Z,58.20
2017-07-06T19:01:08.970Z,59.80
2017-07-06T19:03:36.207Z,60.30
2017-07-06T19:06:03.196Z,59.80
2017-07-06T19:08:29.995Z,59.60
2017-07-06T19:10:56.870Z,60.60
2017-07-06T19:13:24.536Z,61.50
2017-07-06T19:15:51.376Z,63.60
2017-07-06T19:18:17.892Z,63.70
2017-07-06T19:20:44.161Z,65.50
2017-07-06T19:23:10.459Z,66.70
2017-07-06T19:25:36.732Z,67.90
2017-07-06T19:28:03.042Z,69.40
2017-07-06T19:30:29.334Z,67.80
2017-07-06T19:32:55.640Z,68.00
2017-07-06T19:35:21.917Z,69.50
2017-07-06T19:37:48.481Z,69.70
2017-07-06T19:40:14.793Z,69.90
2017-07-06T19:42:41.086Z,71.00
2017-07-06T19:45:07.370Z,71.40
2017-07-06T19:47:34.420Z,71.20
2017-07-06T19:50:00.736Z,71.20
2017-07-06T19:52:27.028Z,73.00
2017-07-06T19:54:53.326Z,73.80
2017-07-06T19:57:19.635Z,73.10
2017-07-06T19:59:45.967Z,73.20
2017-07-06T20:02:12.261Z,73.50
2017-07-06T20:04:39.440Z,74.20
2017-07-06T20:07:05.728Z,74.80
2017-07-06T20:09:32.023Z,74.70
2017-07-06T20:11:59.034Z,75.60
2017-07-06T20:14:25.359Z,75.50
2017-07-06T20:16:51.646Z,78.70
2017-07-06T20:19:17.911Z,78.20
2017-07-06T20:21:44.185Z,78.10
2017-07-06T20:24:11.195Z,79.10
2017-07-06T20:26:37.474Z,79.00
2017-07-06T20:29:03.750Z,79.60
2017-07-06T20:31:31.022Z,80.30
2017-07-06T20:33:57.302Z,82.20
2017-07-06T20:36:24.433Z,82.50
2017-07-06T20:38:50.702Z,82.60
2017-07-06T20:41:16.982Z,83.20
2017-07-06T20:43:43.258Z,83.00
2017-07-06T20:46:10.499Z,82.70
2017-07-06T20:48:36.778Z,83.40
2017-07-06T20:51:03.075Z,84.90
2017-07-06T20:53:29.469Z,84.90
2017-07-06T20:55:55.770Z,86.60
2017-07-06T20:58:22.053Z,86.50
2017-07-06T21:00:48.354Z,86.50
2017-07-06T21:03:14.631Z,87.10
2017-07-06T21:05:40.973Z,86.60
2017-07-06T21:08:08.081Z,85.90
2017-07-06T21:10:34.374Z,86.40
2017-07-06T21:13:00.700Z,86.50
2017-07-06T21:15:27.061Z,87.50
2017-07-06T21:17:53.337Z,87.80
2017-07-06T21:20:20.379Z,88.20
2017-07-06T21:22:46.677Z,87.40
2017-07-06T21:25:13.243Z,88.20
2017-07-06T21:27:39.534Z,88.70
2017-07-06T21:30:05.814Z,89.00
2017-07-06T21:32:32.111Z,88.10
2017-07-06T21:34:58.398Z,87.30
2017-07-06T21:37:25.416Z,87.90
2017-07-06T21:39:51.715Z,87.90
2017-07-06T21:42:17.983Z,89.30
2017-07-06T21:44:45.021Z,90.40
2017-07-06T21:47:11.325Z,90.20
2017-07-06T21:49:37.620Z,89.70
2017-07-06T21:52:05.318Z,90.10
2017-07-06T21:54:31.601Z,90.60
2017-07-06T21:56:58.622Z,90.60
2017-07-06T21:59:26.059Z,90.80
2017-07-06T22:01:53.108Z,90.50
2017-07-06T22:04:21.055Z,91.00
2017-07-06T22:06:47.712Z,91.00
2017-07-06T22:09:14.385Z,90.90
2017-07-06T22:11:41.177Z,90.60
2017-07-06T22:14:07.921Z,91.10
2017-07-06T22:16:34.585Z,90.80
2017-07-06T22:19:01.113Z,90.70
2017-07-06T22:21:27.612Z,91.00
2017-07-06T22:23:54.121Z,91.10
2017-07-06T22:26:20.825Z,90.70
2017-07-06T22:28:47.461Z,91.20
2017-07-06T22:31:14.326Z,90.60
2017-07-06T22:33:40.729Z,90.90
2017-07-06T22:36:07.404Z,91.80
2017-07-06T22:38:33.814Z,90.90
2017-07-06T22:41:00.075Z,90.90
2017-07-06T22:43:26.377Z,91.60
2017-07-06T22:45:53.417Z,91.70
2017-07-06T22:48:20.472Z,91.80
2017-07-06T22:50:47.486Z,92.00
2017-07-06T22:53:13.778Z,92.00
2017-07-06T22:55:40.062Z,92.40
2017-07-06T22:58:06.329Z,91.80
2017-07-06T23:00:32.622Z,91.80
2017-07-06T23:02:58.912Z,92.00
2017-07-06T23:05:25.206Z,92.00
2017-07-06T23:07:51.704Z,92.10
2017-07-06T23:10:17.973Z,92.80
2017-07-06T23:12:44.275Z,92.20
2017-07-06T23:15:10.563Z,92.20
2017-07-06T23:17:36.849Z,92.10
2017-07-06T23:20:03.871Z,92.60
2017-07-06T23:22:30.150Z,92.60
2017-07-06T23:24:56.446Z,93.80
2017-07-06T23:27:22.746Z,92.70
2017-07-06T23:29:49.025Z,93.10
2017-07-06T23:32:15.284Z,93.20
2017-07-06T23:34:41.579Z,92.50
2017-07-06T23:37:07.858Z,93.30
2017-07-06T23:39:34.150Z,93.00
2017-07-06T23:42:01.177Z,92.20
2017-07-06T23:44:27.449Z,92.10
2017-07-06T23:46:53.735Z,92.70
2017-07-06T23:49:20.802Z,93.30
2017-07-06T23:51:47.087Z,93.30
2017-07-06T23:54:13.395Z,93.40
2017-07-06T23:56:39.662Z,93.40
2017-07-06T23:59:05.935Z,93.90
